^^
Station Historical Data
Daily Summary for May 11, 2017 Units:  Both    English   Metric
« Previous Day
Next Day »
Daily Weekly Monthly Yearly Custom
  High: Low: Average:
Temperature: 77.7 °F /  25.4 °C 50.5 °F /  10.3 °C 61.9 °F /  16.6 °C
Dew Point: 52.9 °F /  11.6 °C 38.1 °F /  3.4 °C 45 °F /  7.2 °C
Humidity: 86% 27% 58%
Wind Speed: 8.9mph /  14.3km/h - 0.7mph /  1.1km/h
Wind Gust: 13.0mph /  20.9km/h - -
Wind- - SSW
Pressure: 30.06 in /  1017.8 hPa 29.97 in /  1014.8 hPa -
Precipitation: 0.00 in /  0 mm    
Historical Graphs
 
 
Tabular Data for May 11, 2017
Time Temperature Dew Point Pressure Wind Wind Speed Wind Gust Humidity Rainfall Rate (Hourly) solar Conditions
00:03 57.4 °F /  14.1 °C 45.3 °F /  7.4 °C 30.03in /  1016.8hPa Calm     64% 0.00in /  0mm 0.0 W/m2
00:09 57.0 °F /  13.9 °C 45.3 °F /  7.4 °C 30.03in /  1016.8hPa Calm     65% 0.00in /  0mm 0.0 W/m2
00:15 56.8 °F /  13.8 °C 45.1 °F /  7.3 °C 30.03in /  1016.8hPa Calm     65% 0.00in /  0mm 0.0 W/m2
00:21 56.7 °F /  13.7 °C 45.5 °F /  7.5 °C 30.03in /  1016.8hPa Calm     66% 0.00in /  0mm 0.0 W/m2
00:27 56.1 °F /  13.4 °C 45.3 °F /  7.4 °C 30.02in /  1016.5hPa Calm     67% 0.00in /  0mm 0.0 W/m2
00:33 55.8 °F /  13.2 °C 45.3 °F /  7.4 °C 30.03in /  1016.8hPa Calm     68% 0.00in /  0mm 0.0 W/m2
00:39 55.6 °F /  13.1 °C 45.5 °F /  7.5 °C 30.03in /  1016.8hPa Calm     69% 0.00in /  0mm 0.0 W/m2
00:45 55.0 °F /  12.8 °C 45.1 °F /  7.3 °C 30.02in /  1016.5hPa Calm     69% 0.00in /  0mm 0.0 W/m2
00:51 54.9 °F /  12.7 °C 45.3 °F /  7.4 °C 30.02in /  1016.5hPa Calm     70% 0.00in /  0mm 0.0 W/m2
00:57 54.5 °F /  12.5 °C 45.3 °F /  7.4 °C 30.02in /  1016.5hPa Calm   1.0mph /  1.6km/h 71% 0.00in /  0mm 0.0 W/m2
01:03 54.3 °F /  12.4 °C 45.5 °F /  7.5 °C 30.02in /  1016.5hPa Calm   2.0mph /  3.2km/h 72% 0.00in /  0mm 0.0 W/m2
01:09 54.0 °F /  12.2 °C 45.5 °F /  7.5 °C 30.03in /  1016.8hPa Calm   3.0mph /  4.8km/h 73% 0.00in /  0mm 0.0 W/m2
01:15 53.8 °F /  12.1 °C 45.3 °F /  7.4 °C 30.03in /  1016.8hPa Calm   3.0mph /  4.8km/h 73% 0.00in /  0mm 0.0 W/m2
01:21 53.8 °F /  12.1 °C 45.7 °F /  7.6 °C 30.02in /  1016.5hPa Calm   4.0mph /  6.4km/h 74% 0.00in /  0mm 0.0 W/m2
01:27 53.4 °F /  11.9 °C 45.3 °F /  7.4 °C 30.02in /  1016.5hPa East 2.0mph /  3.2km/h 3.0mph /  4.8km/h 74% 0.00in /  0mm 0.0 W/m2
01:33 53.4 °F /  11.9 °C 45.7 °F /  7.6 °C 30.02in /  1016.5hPa Calm   3.0mph /  4.8km/h 75% 0.00in /  0mm 0.0 W/m2
01:39 53.2 °F /  11.8 °C 45.5 °F /  7.5 °C 30.02in /  1016.5hPa East 2.0mph /  3.2km/h 3.0mph /  4.8km/h 75% 0.00in /  0mm 0.0 W/m2
01:45 53.2 °F /  11.8 °C 45.5 °F /  7.5 °C 30.02in /  1016.5hPa Calm   1.0mph /  1.6km/h 75% 0.00in /  0mm 0.0 W/m2
01:51 53.1 °F /  11.7 °C 45.7 °F /  7.6 °C 30.02in /  1016.5hPa East 2.0mph /  3.2km/h 3.0mph /  4.8km/h 76% 0.00in /  0mm 0.0 W/m2
01:57 53.1 °F /  11.7 °C 45.7 °F /  7.6 °C 30.02in /  1016.5hPa Calm   2.0mph /  3.2km/h 76% 0.00in /  0mm 0.0 W/m2
02:03 52.9 °F /  11.6 °C 45.5 °F /  7.5 °C 30.02in /  1016.5hPa Calm   2.0mph /  3.2km/h 76% 0.00in /  0mm 0.0 W/m2
02:09 52.7 °F /  11.5 °C 45.7 °F /  7.6 °C 30.01in /  1016.1hPa Calm   1.0mph /  1.6km/h 77% 0.00in /  0mm 0.0 W/m2
02:15 52.5 °F /  11.4 °C 45.5 °F /  7.5 °C 30.01in /  1016.1hPa Calm     77% 0.00in /  0mm 0.0 W/m2
02:21 52.3 °F /  11.3 °C 45.3 °F /  7.4 °C 30.02in /  1016.5hPa East 0.9mph /  1.4km/h 3.0mph /  4.8km/h 77% 0.00in /  0mm 0.0 W/m2
02:27 52.2 °F /  11.2 °C 45.1 °F /  7.3 °C 30.01in /  1016.1hPa ESE 0.9mph /  1.4km/h 2.0mph /  3.2km/h 77% 0.00in /  0mm 0.0 W/m2
02:33 52.2 °F /  11.2 °C 45.1 °F /  7.3 °C 30.01in /  1016.1hPa Calm   1.0mph /  1.6km/h 77% 0.00in /  0mm 0.0 W/m2
02:39 52.0 °F /  11.1 °C 45.3 °F /  7.4 °C 30.01in /  1016.1hPa Calm   2.0mph /  3.2km/h 78% 0.00in /  0mm 0.0 W/m2
02:45 52.0 °F /  11.1 °C 45.3 °F /  7.4 °C 30.01in /  1016.1hPa SE 2.9mph /  4.7km/h 3.0mph /  4.8km/h 78% 0.00in /  0mm 0.0 W/m2
02:51 52.0 °F /  11.1 °C 45.3 °F /  7.4 °C 30.01in /  1016.1hPa Calm   2.0mph /  3.2km/h 78% 0.00in /  0mm 0.0 W/m2
02:57 51.8 °F /  11 °C 45.5 °F /  7.5 °C 30.01in /  1016.1hPa Calm   2.0mph /  3.2km/h 79% 0.00in /  0mm 0.0 W/m2
03:03 51.6 °F /  10.9 °C 45.3 °F /  7.4 °C 30.01in /  1016.1hPa Calm   1.0mph /  1.6km/h 79% 0.00in /  0mm 0.0 W/m2
03:09 51.6 °F /  10.9 °C 45.3 °F /  7.4 °C 30.01in /  1016.1hPa Calm   1.0mph /  1.6km/h 79% 0.00in /  0mm 0.0 W/m2
03:15 51.4 °F /  10.8 °C 45.5 °F /  7.5 °C 30.01in /  1016.1hPa Calm     80% 0.00in /  0mm 0.0 W/m2
03:21 51.4 °F /  10.8 °C 45.5 °F /  7.5 °C 30.01in /  1016.1hPa Calm     80% 0.00in /  0mm 0.0 W/m2
03:27 51.4 °F /  10.8 °C 45.5 °F /  7.5 °C 30.01in /  1016.1hPa Calm     80% 0.00in /  0mm 0.0 W/m2
03:33 51.3 °F /  10.7 °C 45.3 °F /  7.4 °C 30.01in /  1016.1hPa Calm   1.0mph /  1.6km/h 80% 0.00in /  0mm 0.0 W/m2
03:39 51.3 °F /  10.7 °C 45.3 °F /  7.4 °C 30.01in /  1016.1hPa Calm   1.0mph /  1.6km/h 80% 0.00in /  0mm 0.0 W/m2
03:45 51.3 °F /  10.7 °C 45.3 °F /  7.4 °C 30.01in /  1016.1hPa Calm     80% 0.00in /  0mm 0.0 W/m2
03:51 51.1 °F /  10.6 °C 45.1 °F /  7.3 °C 30.01in /  1016.1hPa Calm     80% 0.00in /  0mm 0.0 W/m2
03:57 51.1 °F /  10.6 °C 45.1 °F /  7.3 °C 30.01in /  1016.1hPa Calm     80% 0.00in /  0mm 0.0 W/m2
04:03 51.1 °F /  10.6 °C 45.1 °F /  7.3 °C 30.01in /  1016.1hPa Calm   1.0mph /  1.6km/h 80% 0.00in /  0mm 0.0 W/m2
04:09 51.1 °F /  10.6 °C 45.1 °F /  7.3 °C 30.01in /  1016.1hPa Calm   1.0mph /  1.6km/h 80% 0.00in /  0mm 0.0 W/m2
04:15 51.1 °F /  10.6 °C 45.5 °F /  7.5 °C 30.01in /  1016.1hPa Calm   2.0mph /  3.2km/h 81% 0.00in /  0mm 0.0 W/m2
04:21 51.1 °F /  10.6 °C 45.5 °F /  7.5 °C 30.01in /  1016.1hPa Calm     81% 0.00in /  0mm 0.0 W/m2
04:27 51.1 °F /  10.6 °C 45.5 °F /  7.5 °C 30.01in /  1016.1hPa Calm     81% 0.00in /  0mm 0.0 W/m2
04:33 51.1 °F /  10.6 °C 45.5 °F /  7.5 °C 30.01in /  1016.1hPa Calm     81% 0.00in /  0mm 0.0 W/m2
04:39 51.1 °F /  10.6 °C 45.5 °F /  7.5 °C 30.01in /  1016.1hPa Calm     81% 0.00in /  0mm 0.0 W/m2
04:45 50.9 °F /  10.5 °C 45.3 °F /  7.4 °C 30.01in /  1016.1hPa Calm     81% 0.00in /  0mm 0.0 W/m2
04:51 50.9 °F /  10.5 °C 45.7 °F /  7.6 °C 30.02in /  1016.5hPa Calm     82% 0.00in /  0mm 0.0 W/m2
04:57 50.9 °F /  10.5 °C 45.7 °F /  7.6 °C 30.02in /  1016.5hPa Calm   1.0mph /  1.6km/h 82% 0.00in /  0mm 0.0 W/m2
05:07 50.7 °F /  10.4 °C 45.5 °F /  7.5 °C 30.02in /  1016.5hPa Calm   1.0mph /  1.6km/h 82% 0.00in /  0mm 0.0 W/m2
05:18 50.9 °F /  10.5 °C 45.7 °F /  7.6 °C 30.02in /  1016.5hPa Calm     82% 0.00in /  0mm 0.0 W/m2
05:23 51.1 °F /  10.6 °C 45.9 °F /  7.7 °C 30.02in /  1016.5hPa Calm   1.0mph /  1.6km/h 82% 0.00in /  0mm 0.0 W/m2
05:32 50.9 °F /  10.5 °C 45.9 °F /  7.7 °C 30.02in /  1016.5hPa Calm     83% 0.00in /  0mm 0.0 W/m2
05:38 51.1 °F /  10.6 °C 46.0 °F /  7.8 °C 30.03in /  1016.8hPa Calm     83% 0.00in /  0mm 0.0 W/m2
05:44 51.1 °F /  10.6 °C 46.0 °F /  7.8 °C 30.03in /  1016.8hPa ESE 0.9mph /  1.4km/h 1.0mph /  1.6km/h 83% 0.00in /  0mm 0.0 W/m2
05:50 50.9 °F /  10.5 °C 45.9 °F /  7.7 °C 30.03in /  1016.8hPa Calm   2.0mph /  3.2km/h 83% 0.00in /  0mm 0.0 W/m2
05:56 50.9 °F /  10.5 °C 46.2 °F /  7.9 °C 30.03in /  1016.8hPa Calm   1.0mph /  1.6km/h 84% 0.00in /  0mm 0.0 W/m2
06:02 50.9 °F /  10.5 °C 46.2 °F /  7.9 °C 30.03in /  1016.8hPa Calm   1.0mph /  1.6km/h 84% 0.00in /  0mm 0.0 W/m2
06:09 50.7 °F /  10.4 °C 46.0 °F /  7.8 °C 30.03in /  1016.8hPa Calm     84% 0.00in /  0mm 0.0 W/m2
06:15 50.7 °F /  10.4 °C 46.0 °F /  7.8 °C 30.03in /  1016.8hPa Calm     84% 0.00in /  0mm 0.0 W/m2
06:21 50.7 °F /  10.4 °C 46.0 °F /  7.8 °C 30.03in /  1016.8hPa Calm   1.0mph /  1.6km/h 84% 0.00in /  0mm 7.0 W/m2
06:27 50.5 °F /  10.3 °C 46.2 °F /  7.9 °C 30.03in /  1016.8hPa Calm   1.0mph /  1.6km/h 85% 0.00in /  0mm 9.0 W/m2
06:33 50.7 °F /  10.4 °C 46.4 °F /  8 °C 30.04in /  1017.2hPa ESE 0.9mph /  1.4km/h 2.0mph /  3.2km/h 85% 0.00in /  0mm 11.0 W/m2
06:39 50.7 °F /  10.4 °C 46.8 °F /  8.2 °C 30.04in /  1017.2hPa Calm     86% 0.00in /  0mm 12.0 W/m2
06:45 51.1 °F /  10.6 °C 46.8 °F /  8.2 °C 30.04in /  1017.2hPa Calm     85% 0.00in /  0mm 14.0 W/m2
06:51 51.1 °F /  10.6 °C 46.8 °F /  8.2 °C 30.04in /  1017.2hPa Calm     85% 0.00in /  0mm 18.0 W/m2
06:57 51.3 °F /  10.7 °C 47.3 °F /  8.5 °C 30.05in /  1017.5hPa Calm   1.0mph /  1.6km/h 86% 0.00in /  0mm 18.0 W/m2
07:03 51.3 °F /  10.7 °C 47.3 °F /  8.5 °C 30.05in /  1017.5hPa Calm     86% 0.00in /  0mm 18.0 W/m2
07:09 51.6 °F /  10.9 °C 47.5 °F /  8.6 °C 30.05in /  1017.5hPa Calm     86% 0.00in /  0mm 19.0 W/m2
07:15 52.0 °F /  11.1 °C 47.8 °F /  8.8 °C 30.05in /  1017.5hPa Calm     86% 0.00in /  0mm 23.0 W/m2
07:21 52.5 °F /  11.4 °C 48.2 °F /  9 °C 30.06in /  1017.8hPa Calm     85% 0.00in /  0mm 32.0 W/m2
07:27 52.9 °F /  11.6 °C 48.6 °F /  9.2 °C 30.06in /  1017.8hPa Calm   1.0mph /  1.6km/h 85% 0.00in /  0mm 62.0 W/m2
07:34 53.4 °F /  11.9 °C 49.1 °F /  9.5 °C 30.06in /  1017.8hPa Calm   1.0mph /  1.6km/h 85% 0.00in /  0mm 74.0 W/m2
07:40 54.1 °F /  12.3 °C 49.8 °F /  9.9 °C 30.06in /  1017.8hPa Calm   1.0mph /  1.6km/h 85% 0.00in /  0mm 65.0 W/m2
07:46 54.9 °F /  12.7 °C 49.8 °F /  9.9 °C 30.06in /  1017.8hPa Calm     83% 0.00in /  0mm 44.0 W/m2
07:52 55.2 °F /  12.9 °C 50.2 °F /  10.1 °C 30.06in /  1017.8hPa Calm     83% 0.00in /  0mm 46.0 W/m2
07:58 55.9 °F /  13.3 °C 50.5 °F /  10.3 °C 30.06in /  1017.8hPa Calm     82% 0.00in /  0mm 47.0 W/m2
08:04 56.5 °F /  13.6 °C 50.4 °F /  10.2 °C 30.06in /  1017.8hPa Calm     80% 0.00in /  0mm 46.0 W/m2
08:10 57.2 °F /  14 °C 51.1 °F /  10.6 °C 30.06in /  1017.8hPa Calm     80% 0.00in /  0mm 81.0 W/m2
08:16 58.3 °F /  14.6 °C 51.4 °F /  10.8 °C 30.05in /  1017.5hPa Calm     78% 0.00in /  0mm 404.0 W/m2
08:22 59.7 °F /  15.4 °C 51.8 °F /  11 °C 30.05in /  1017.5hPa Calm     75% 0.00in /  0mm 425.0 W/m2
08:29 61.5 °F /  16.4 °C 52.3 °F /  11.3 °C 30.05in /  1017.5hPa Calm   1.0mph /  1.6km/h 72% 0.00in /  0mm 438.0 W/m2
08:35 62.4 °F /  16.9 °C 52.2 °F /  11.2 °C 30.06in /  1017.8hPa Calm   2.0mph /  3.2km/h 69% 0.00in /  0mm 455.0 W/m2
08:41 63.1 °F /  17.3 °C 52.3 °F /  11.3 °C 30.06in /  1017.8hPa West 0.9mph /  1.4km/h 2.0mph /  3.2km/h 68% 0.00in /  0mm 471.0 W/m2
08:47 64.2 °F /  17.9 °C 52.2 °F /  11.2 °C 30.06in /  1017.8hPa Calm   3.0mph /  4.8km/h 65% 0.00in /  0mm 490.0 W/m2
08:53 65.8 °F /  18.8 °C 52.0 °F /  11.1 °C 30.06in /  1017.8hPa Calm   3.0mph /  4.8km/h 61% 0.00in /  0mm 508.0 W/m2
08:59 66.7 °F /  19.3 °C 52.0 °F /  11.1 °C 30.06in /  1017.8hPa Calm   2.0mph /  3.2km/h 59% 0.00in /  0mm 540.0 W/m2
09:05 67.3 °F /  19.6 °C 52.0 °F /  11.1 °C 30.06in /  1017.8hPa Calm   2.0mph /  3.2km/h 58% 0.00in /  0mm 306.0 W/m2
09:11 67.5 °F /  19.7 °C 51.6 °F /  10.9 °C 30.06in /  1017.8hPa NNW 0.9mph /  1.4km/h 3.0mph /  4.8km/h 57% 0.00in /  0mm 559.0 W/m2
09:17 68.4 °F /  20.2 °C 52.5 °F /  11.4 °C 30.06in /  1017.8hPa Calm   2.0mph /  3.2km/h 57% 0.00in /  0mm 573.0 W/m2
09:24 69.1 °F /  20.6 °C 52.2 °F /  11.2 °C 30.06in /  1017.8hPa Calm   2.0mph /  3.2km/h 55% 0.00in /  0mm 587.0 W/m2
09:30 69.6 °F /  20.9 °C 52.2 °F /  11.2 °C 30.06in /  1017.8hPa Calm   3.0mph /  4.8km/h 54% 0.00in /  0mm 603.0 W/m2
09:36 70.0 °F /  21.1 °C 52.0 °F /  11.1 °C 30.06in /  1017.8hPa Calm   1.0mph /  1.6km/h 53% 0.00in /  0mm 621.0 W/m2
09:42 70.2 °F /  21.2 °C 51.8 °F /  11 °C 30.06in /  1017.8hPa NNE 2.0mph /  3.2km/h 4.0mph /  6.4km/h 52% 0.00in /  0mm 629.0 W/m2
09:48 70.5 °F /  21.4 °C 52.0 °F /  11.1 °C 30.06in /  1017.8hPa Calm   1.0mph /  1.6km/h 52% 0.00in /  0mm 643.0 W/m2
09:54 70.9 °F /  21.6 °C 51.3 °F /  10.7 °C 30.06in /  1017.8hPa North 2.9mph /  4.7km/h 6.0mph /  9.7km/h 50% 0.00in /  0mm 652.0 W/m2
10:00 71.2 °F /  21.8 °C 51.6 °F /  10.9 °C 30.06in /  1017.8hPa NW 4.0mph /  6.4km/h 7.0mph /  11.3km/h 50% 0.00in /  0mm 666.0 W/m2
10:06 71.8 °F /  22.1 °C 51.6 °F /  10.9 °C 30.06in /  1017.8hPa NNW 2.0mph /  3.2km/h 4.0mph /  6.4km/h 49% 0.00in /  0mm 677.0 W/m2
10:12 72.1 °F /  22.3 °C 50.7 °F /  10.4 °C 30.06in /  1017.8hPa NE 0.9mph /  1.4km/h 2.0mph /  3.2km/h 47% 0.00in /  0mm 686.0 W/m2
10:18 72.3 °F /  22.4 °C 52.2 °F /  11.2 °C 30.05in /  1017.5hPa Calm   2.0mph /  3.2km/h 49% 0.00in /  0mm 694.0 W/m2
10:24 72.1 °F /  22.3 °C 52.0 °F /  11.1 °C 30.05in /  1017.5hPa Calm   5.0mph /  8km/h 49% 0.00in /  0mm 705.0 W/m2
10:30 72.5 °F /  22.5 °C 51.6 °F /  10.9 °C 30.05in /  1017.5hPa Calm   6.0mph /  9.7km/h 48% 0.00in /  0mm 715.0 W/m2
10:37 72.9 °F /  22.7 °C 52.0 °F /  11.1 °C 30.04in /  1017.2hPa NNE 2.9mph /  4.7km/h 5.0mph /  8km/h 48% 0.00in /  0mm 717.0 W/m2
10:43 73.2 °F /  22.9 °C 52.9 °F /  11.6 °C 30.04in /  1017.2hPa Calm   6.0mph /  9.7km/h 49% 0.00in /  0mm 728.0 W/m2
10:49 73.6 °F /  23.1 °C 52.2 °F /  11.2 °C 30.04in /  1017.2hPa Calm   6.0mph /  9.7km/h 47% 0.00in /  0mm 735.0 W/m2
10:55 73.8 °F /  23.2 °C 51.1 °F /  10.6 °C 30.04in /  1017.2hPa NW 4.0mph /  6.4km/h 7.0mph /  11.3km/h 45% 0.00in /  0mm 740.0 W/m2
11:01 73.9 °F /  23.3 °C 50.7 °F /  10.4 °C 30.04in /  1017.2hPa NE 2.0mph /  3.2km/h 9.0mph /  14.5km/h 44% 0.00in /  0mm 744.0 W/m2
11:07 73.9 °F /  23.3 °C 51.8 °F /  11 °C 30.03in /  1016.8hPa NNW 2.9mph /  4.7km/h 7.0mph /  11.3km/h 46% 0.00in /  0mm 747.0 W/m2
11:13 74.5 °F /  23.6 °C 51.1 °F /  10.6 °C 30.03in /  1016.8hPa NNW 0.9mph /  1.4km/h 3.0mph /  4.8km/h 44% 0.00in /  0mm 751.0 W/m2
11:19 74.7 °F /  23.7 °C 51.3 °F /  10.7 °C 30.03in /  1016.8hPa North 6.0mph /  9.7km/h 6.0mph /  9.7km/h 44% 0.00in /  0mm 752.0 W/m2
11:25 74.8 °F /  23.8 °C 50.9 °F /  10.5 °C 30.03in /  1016.8hPa Calm   2.0mph /  3.2km/h 43% 0.00in /  0mm 758.0 W/m2
11:32 75.0 °F /  23.9 °C 51.1 °F /  10.6 °C 30.02in /  1016.5hPa NNE 0.9mph /  1.4km/h 2.0mph /  3.2km/h 43% 0.00in /  0mm 766.0 W/m2
11:37 75.4 °F /  24.1 °C 50.7 °F /  10.4 °C 30.02in /  1016.5hPa Calm   3.0mph /  4.8km/h 42% 0.00in /  0mm 765.0 W/m2
11:43 75.9 °F /  24.4 °C 49.1 °F /  9.5 °C 30.02in /  1016.5hPa Calm   6.0mph /  9.7km/h 39% 0.00in /  0mm 763.0 W/m2
11:50 76.1 °F /  24.5 °C 49.3 °F /  9.6 °C 30.02in /  1016.5hPa NNE 0.9mph /  1.4km/h 6.0mph /  9.7km/h 39% 0.00in /  0mm 772.0 W/m2
11:56 76.1 °F /  24.5 °C 48.6 °F /  9.2 °C 30.01in /  1016.1hPa WNW 0.9mph /  1.4km/h 7.0mph /  11.3km/h 38% 0.00in /  0mm 766.0 W/m2
12:03 76.3 °F /  24.6 °C 49.5 °F /  9.7 °C 30.01in /  1016.1hPa NNW 6.0mph /  9.7km/h 7.0mph /  11.3km/h 39% 0.00in /  0mm 758.0 W/m2
12:08 76.5 °F /  24.7 °C 48.9 °F /  9.4 °C 30.01in /  1016.1hPa North 4.0mph /  6.4km/h 6.0mph /  9.7km/h 38% 0.00in /  0mm 758.0 W/m2
12:14 76.6 °F /  24.8 °C 49.8 °F /  9.9 °C 30.00in /  1015.8hPa North 0.9mph /  1.4km/h 4.0mph /  6.4km/h 39% 0.00in /  0mm 754.0 W/m2
12:20 76.6 °F /  24.8 °C 49.1 °F /  9.5 °C 30.00in /  1015.8hPa North 2.9mph /  4.7km/h 5.0mph /  8km/h 38% 0.00in /  0mm 752.0 W/m2
12:26 76.6 °F /  24.8 °C 47.7 °F /  8.7 °C 29.99in /  1015.5hPa Calm   5.0mph /  8km/h 36% 0.00in /  0mm 749.0 W/m2
12:32 76.5 °F /  24.7 °C 45.1 °F /  7.3 °C 29.99in /  1015.5hPa NNW 4.0mph /  6.4km/h 5.0mph /  8km/h 33% 0.00in /  0mm 745.0 W/m2
12:38 76.5 °F /  24.7 °C 45.1 °F /  7.3 °C 29.99in /  1015.5hPa NNW 0.9mph /  1.4km/h 7.0mph /  11.3km/h 33% 0.00in /  0mm 745.0 W/m2
12:45 76.6 °F /  24.8 °C 46.2 °F /  7.9 °C 29.99in /  1015.5hPa West 4.9mph /  7.9km/h 9.0mph /  14.5km/h 34% 0.00in /  0mm 752.0 W/m2
12:51 77.0 °F /  25 °C 47.3 °F /  8.5 °C 29.98in /  1015.1hPa Calm   5.0mph /  8km/h 35% 0.00in /  0mm 735.0 W/m2
12:57 77.4 °F /  25.2 °C 46.8 °F /  8.2 °C 29.99in /  1015.5hPa NE 2.9mph /  4.7km/h 6.0mph /  9.7km/h 34% 0.00in /  0mm 751.0 W/m2
13:03 77.7 °F /  25.4 °C 45.5 °F /  7.5 °C 29.98in /  1015.1hPa NW 4.9mph /  7.9km/h 9.0mph /  14.5km/h 32% 0.00in /  0mm 751.0 W/m2
13:09 77.7 °F /  25.4 °C 45.5 °F /  7.5 °C 29.98in /  1015.1hPa ENE 4.0mph /  6.4km/h 8.0mph /  12.9km/h 32% 0.00in /  0mm 884.0 W/m2
13:15 77.4 °F /  25.2 °C 46.8 °F /  8.2 °C 29.98in /  1015.1hPa NNW 4.9mph /  7.9km/h 11.0mph /  17.7km/h 34% 0.00in /  0mm 898.0 W/m2
13:21 76.8 °F /  24.9 °C 46.4 °F /  8 °C 29.98in /  1015.1hPa North 2.0mph /  3.2km/h 13.0mph /  20.9km/h 34% 0.00in /  0mm 229.0 W/m2
13:28 75.9 °F /  24.4 °C 46.2 °F /  7.9 °C 29.98in /  1015.1hPa NW 2.9mph /  4.7km/h 8.0mph /  12.9km/h 35% 0.00in /  0mm 223.0 W/m2
13:34 75.6 °F /  24.2 °C 45.1 °F /  7.3 °C 29.98in /  1015.1hPa NNE 4.0mph /  6.4km/h 9.0mph /  14.5km/h 34% 0.00in /  0mm 223.0 W/m2
13:40 75.7 °F /  24.3 °C 44.6 °F /  7 °C 29.97in /  1014.8hPa Calm   4.0mph /  6.4km/h 33% 0.00in /  0mm 272.0 W/m2
13:46 75.7 °F /  24.3 °C 43.7 °F /  6.5 °C 29.97in /  1014.8hPa Calm   3.0mph /  4.8km/h 32% 0.00in /  0mm 141.0 W/m2
13:53 75.9 °F /  24.4 °C 43.2 °F /  6.2 °C 29.97in /  1014.8hPa Calm   3.0mph /  4.8km/h 31% 0.00in /  0mm 701.0 W/m2
14:06 75.9 °F /  24.4 °C 43.2 °F /  6.2 °C 29.97in /  1014.8hPa Calm   2.0mph /  3.2km/h 31% 0.00in /  0mm 731.0 W/m2
14:13 76.8 °F /  24.9 °C 43.0 °F /  6.1 °C 29.97in /  1014.8hPa NW 8.9mph /  14.3km/h 12.0mph /  19.3km/h 30% 0.00in /  0mm 696.0 W/m2
14:18 77.0 °F /  25 °C 43.2 °F /  6.2 °C 29.97in /  1014.8hPa Calm   3.0mph /  4.8km/h 30% 0.00in /  0mm 123.0 W/m2
14:24 76.5 °F /  24.7 °C 43.5 °F /  6.4 °C 29.98in /  1015.1hPa West 8.1mph /  13km/h 10.0mph /  16.1km/h 31% 0.00in /  0mm 592.0 W/m2
14:30 75.9 °F /  24.4 °C 43.9 °F /  6.6 °C 29.97in /  1014.8hPa SW 2.0mph /  3.2km/h 7.0mph /  11.3km/h 32% 0.00in /  0mm 596.0 W/m2
14:36 75.9 °F /  24.4 °C 43.2 °F /  6.2 °C 29.97in /  1014.8hPa Calm   9.0mph /  14.5km/h 31% 0.00in /  0mm 149.0 W/m2
14:42 75.7 °F /  24.3 °C 43.7 °F /  6.5 °C 29.97in /  1014.8hPa Calm   1.0mph /  1.6km/h 32% 0.00in /  0mm 90.0 W/m2
14:49 75.4 °F /  24.1 °C 44.2 °F /  6.8 °C 29.97in /  1014.8hPa North 2.0mph /  3.2km/h 2.0mph /  3.2km/h 33% 0.00in /  0mm 97.0 W/m2
14:56 75.4 °F /  24.1 °C 43.5 °F /  6.4 °C 29.97in /  1014.8hPa West 0.9mph /  1.4km/h 7.0mph /  11.3km/h 32% 0.00in /  0mm 489.0 W/m2
15:02 75.6 °F /  24.2 °C 42.8 °F /  6 °C 29.97in /  1014.8hPa WSW 4.0mph /  6.4km/h 5.0mph /  8km/h 31% 0.00in /  0mm 84.0 W/m2
15:09 75.2 °F /  24 °C 42.4 °F /  5.8 °C 29.97in /  1014.8hPa West 0.9mph /  1.4km/h 5.0mph /  8km/h 31% 0.00in /  0mm 483.0 W/m2
15:16 75.4 °F /  24.1 °C 41.7 °F /  5.4 °C 29.97in /  1014.8hPa NNW 0.9mph /  1.4km/h 7.0mph /  11.3km/h 30% 0.00in /  0mm 301.0 W/m2
15:22 75.4 °F /  24.1 °C 41.0 °F /  5 °C 29.97in /  1014.8hPa Calm   7.0mph /  11.3km/h 29% 0.00in /  0mm 392.0 W/m2
15:28 75.6 °F /  24.2 °C 40.1 °F /  4.5 °C 29.97in /  1014.8hPa NW 0.9mph /  1.4km/h 8.0mph /  12.9km/h 28% 0.00in /  0mm 369.0 W/m2
15:35 75.7 °F /  24.3 °C 41.2 °F /  5.1 °C 29.97in /  1014.8hPa NW 2.0mph /  3.2km/h 9.0mph /  14.5km/h 29% 0.00in /  0mm 346.0 W/m2
15:40 75.7 °F /  24.3 °C 40.3 °F /  4.6 °C 29.97in /  1014.8hPa NW 2.0mph /  3.2km/h 6.0mph /  9.7km/h 28% 0.00in /  0mm 60.0 W/m2
15:47 75.7 °F /  24.3 °C 39.4 °F /  4.1 °C 29.97in /  1014.8hPa Calm   5.0mph /  8km/h 27% 0.00in /  0mm 44.0 W/m2
15:53 75.0 °F /  23.9 °C 38.8 °F /  3.8 °C 29.97in /  1014.8hPa WSW 2.0mph /  3.2km/h 7.0mph /  11.3km/h 27% 0.00in /  0mm 39.0 W/m2
15:59 74.5 °F /  23.6 °C 38.3 °F /  3.5 °C 29.97in /  1014.8hPa South 2.9mph /  4.7km/h 8.0mph /  12.9km/h 27% 0.00in /  0mm 33.0 W/m2
16:05 74.1 °F /  23.4 °C 39.0 °F /  3.9 °C 29.98in /  1015.1hPa West 4.9mph /  7.9km/h 7.0mph /  11.3km/h 28% 0.00in /  0mm 28.0 W/m2
16:11 73.8 °F /  23.2 °C 38.7 °F /  3.7 °C 29.98in /  1015.1hPa SSW 0.9mph /  1.4km/h 5.0mph /  8km/h 28% 0.00in /  0mm 25.0 W/m2
16:17 73.6 °F /  23.1 °C 38.5 °F /  3.6 °C 29.98in /  1015.1hPa West 2.9mph /  4.7km/h 8.0mph /  12.9km/h 28% 0.00in /  0mm 26.0 W/m2
16:23 73.2 °F /  22.9 °C 38.1 °F /  3.4 °C 29.98in /  1015.1hPa SSE 4.0mph /  6.4km/h 7.0mph /  11.3km/h 28% 0.00in /  0mm 23.0 W/m2
16:27 73.0 °F /  22.8 °C 38.8 °F /  3.8 °C 29.98in /  1015.1hPa WNW 0.9mph /  1.4km/h 8.0mph /  12.9km/h 29% 0.00in /  0mm 21.0 W/m2
16:34 72.9 °F /  22.7 °C 39.6 °F /  4.2 °C 29.98in /  1015.1hPa West 4.9mph /  7.9km/h 8.0mph /  12.9km/h 30% 0.00in /  0mm 26.0 W/m2
16:40 72.7 °F /  22.6 °C 39.4 °F /  4.1 °C 29.98in /  1015.1hPa Calm   6.0mph /  9.7km/h 30% 0.00in /  0mm 30.0 W/m2
16:46 72.5 °F /  22.5 °C 39.4 °F /  4.1 °C 29.98in /  1015.1hPa Calm   5.0mph /  8km/h 30% 0.00in /  0mm 16.0 W/m2
16:52 72.1 °F /  22.3 °C 39.0 °F /  3.9 °C 29.98in /  1015.1hPa Calm   7.0mph /  11.3km/h 30% 0.00in /  0mm 16.0 W/m2
16:58 71.8 °F /  22.1 °C 38.7 °F /  3.7 °C 29.98in /  1015.1hPa Calm   4.0mph /  6.4km/h 30% 0.00in /  0mm 12.0 W/m2
17:04 71.4 °F /  21.9 °C 39.2 °F /  4 °C 29.99in /  1015.5hPa Calm   2.0mph /  3.2km/h 31% 0.00in /  0mm 9.0 W/m2
17:10 70.9 °F /  21.6 °C 39.6 °F /  4.2 °C 29.99in /  1015.5hPa Calm   2.0mph /  3.2km/h 32% 0.00in /  0mm 5.0 W/m2
17:16 70.3 °F /  21.3 °C 39.9 °F /  4.4 °C 29.99in /  1015.5hPa Calm   1.0mph /  1.6km/h 33% 0.00in /  0mm 5.0 W/m2
17:22 70.0 °F /  21.1 °C 39.6 °F /  4.2 °C 29.99in /  1015.5hPa Calm     33% 0.00in /  0mm 0.0 W/m2
17:29 69.3 °F /  20.7 °C 39.7 °F /  4.3 °C 29.99in /  1015.5hPa Calm     34% 0.00in /  0mm 0.0 W/m2
17:35 68.7 °F /  20.4 °C 40.6 °F /  4.8 °C 29.99in /  1015.5hPa Calm     36% 0.00in /  0mm 0.0 W/m2
17:59 65.7 °F /  18.7 °C 40.1 °F /  4.5 °C 30.00in /  1015.8hPa Calm     39% 0.00in /  0mm 0.0 W/m2
18:18 63.7 °F /  17.6 °C 40.8 °F /  4.9 °C 30.01in /  1016.1hPa Calm     43% 0.00in /  0mm 0.0 W/m2
18:24 63.1 °F /  17.3 °C 40.3 °F /  4.6 °C 30.00in /  1015.8hPa Calm     43% 0.00in /  0mm 0.0 W/m2
18:30 62.6 °F /  17 °C 40.5 °F /  4.7 °C 30.01in /  1016.1hPa Calm     44% 0.00in /  0mm 0.0 W/m2
18:36 62.1 °F /  16.7 °C 40.5 °F /  4.7 °C 30.01in /  1016.1hPa Calm     45% 0.00in /  0mm 0.0 W/m2
18:43 61.5 °F /  16.4 °C 40.5 °F /  4.7 °C 30.01in /  1016.1hPa Calm     46% 0.00in /  0mm 0.0 W/m2
18:49 61.2 °F /  16.2 °C 40.8 °F /  4.9 °C 30.02in /  1016.5hPa Calm   1.0mph /  1.6km/h 47% 0.00in /  0mm 0.0 W/m2
18:55 61.0 °F /  16.1 °C 40.1 °F /  4.5 °C 30.02in /  1016.5hPa NNE 2.0mph /  3.2km/h 4.0mph /  6.4km/h 46% 0.00in /  0mm 0.0 W/m2
19:01 61.2 °F /  16.2 °C 40.3 °F /  4.6 °C 30.03in /  1016.8hPa Calm     46% 0.00in /  0mm 0.0 W/m2
19:07 61.2 °F /  16.2 °C 40.3 °F /  4.6 °C 30.03in /  1016.8hPa Calm   1.0mph /  1.6km/h 46% 0.00in /  0mm 0.0 W/m2
19:13 61.2 °F /  16.2 °C 40.8 °F /  4.9 °C 30.03in /  1016.8hPa Calm     47% 0.00in /  0mm 0.0 W/m2
19:19 61.0 °F /  16.1 °C 41.2 °F /  5.1 °C 30.03in /  1016.8hPa Calm     48% 0.00in /  0mm 0.0 W/m2
19:25 60.4 °F /  15.8 °C 40.6 °F /  4.8 °C 30.03in /  1016.8hPa Calm   1.0mph /  1.6km/h 48% 0.00in /  0mm 0.0 W/m2
19:32 60.3 °F /  15.7 °C 41.0 °F /  5 °C 30.03in /  1016.8hPa Calm   2.0mph /  3.2km/h 49% 0.00in /  0mm 0.0 W/m2
19:38 59.9 °F /  15.5 °C 40.6 °F /  4.8 °C 30.03in /  1016.8hPa Calm     49% 0.00in /  0mm 0.0 W/m2
19:44 59.7 °F /  15.4 °C 40.5 °F /  4.7 °C 30.03in /  1016.8hPa Calm     49% 0.00in /  0mm 0.0 W/m2
19:50 59.4 °F /  15.2 °C 40.6 °F /  4.8 °C 30.03in /  1016.8hPa Calm     50% 0.00in /  0mm 0.0 W/m2
19:56 59.2 °F /  15.1 °C 41.0 °F /  5 °C 30.04in /  1017.2hPa Calm     51% 0.00in /  0mm 0.0 W/m2
20:02 58.8 °F /  14.9 °C 41.2 °F /  5.1 °C 30.04in /  1017.2hPa Calm     52% 0.00in /  0mm 0.0 W/m2
20:09 58.6 °F /  14.8 °C 41.0 °F /  5 °C 30.04in /  1017.2hPa Calm     52% 0.00in /  0mm 0.0 W/m2
20:15 58.5 °F /  14.7 °C 41.4 °F /  5.2 °C 30.04in /  1017.2hPa Calm     53% 0.00in /  0mm 0.0 W/m2
20:21 57.9 °F /  14.4 °C 41.4 °F /  5.2 °C 30.04in /  1017.2hPa Calm     54% 0.00in /  0mm 0.0 W/m2
20:27 57.7 °F /  14.3 °C 41.2 °F /  5.1 °C 30.04in /  1017.2hPa Calm     54% 0.00in /  0mm 0.0 W/m2
20:33 57.4 °F /  14.1 °C 41.4 °F /  5.2 °C 30.04in /  1017.2hPa SSW 2.0mph /  3.2km/h 3.0mph /  4.8km/h 55% 0.00in /  0mm 0.0 W/m2
20:40 57.0 °F /  13.9 °C 41.0 °F /  5 °C 30.05in /  1017.5hPa Calm     55% 0.00in /  0mm 0.0 W/m2
20:45 56.8 °F /  13.8 °C 41.4 °F /  5.2 °C 30.05in /  1017.5hPa Calm     56% 0.00in /  0mm 0.0 W/m2
20:52 56.7 °F /  13.7 °C 41.5 °F /  5.3 °C 30.05in /  1017.5hPa Calm     57% 0.00in /  0mm 0.0 W/m2
20:58 56.5 °F /  13.6 °C 41.4 °F /  5.2 °C 30.05in /  1017.5hPa Calm     57% 0.00in /  0mm 0.0 W/m2
21:04 56.1 °F /  13.4 °C 41.5 °F /  5.3 °C 30.05in /  1017.5hPa Calm     58% 0.00in /  0mm 0.0 W/m2
21:10 55.9 °F /  13.3 °C 41.9 °F /  5.5 °C 30.05in /  1017.5hPa Calm     59% 0.00in /  0mm 0.0 W/m2
21:16 55.8 °F /  13.2 °C 41.7 °F /  5.4 °C 30.05in /  1017.5hPa Calm     59% 0.00in /  0mm 0.0 W/m2
21:22 55.6 °F /  13.1 °C 41.5 °F /  5.3 °C 30.05in /  1017.5hPa Calm   2.0mph /  3.2km/h 59% 0.00in /  0mm 0.0 W/m2
21:28 55.6 °F /  13.1 °C 41.5 °F /  5.3 °C 30.05in /  1017.5hPa Calm   1.0mph /  1.6km/h 59% 0.00in /  0mm 0.0 W/m2
21:34 55.6 °F /  13.1 °C 41.5 °F /  5.3 °C 30.05in /  1017.5hPa Calm     59% 0.00in /  0mm 0.0 W/m2
21:40 55.6 °F /  13.1 °C 41.5 °F /  5.3 °C 30.05in /  1017.5hPa Calm     59% 0.00in /  0mm 0.0 W/m2
21:47 55.6 °F /  13.1 °C 41.5 °F /  5.3 °C 30.05in /  1017.5hPa Calm   2.0mph /  3.2km/h 59% 0.00in /  0mm 0.0 W/m2
21:53 55.4 °F /  13 °C 41.7 °F /  5.4 °C 30.05in /  1017.5hPa Calm     60% 0.00in /  0mm 0.0 W/m2
21:59 55.2 °F /  12.9 °C 41.5 °F /  5.3 °C 30.05in /  1017.5hPa Calm     60% 0.00in /  0mm 0.0 W/m2
22:05 55.0 °F /  12.8 °C 41.4 °F /  5.2 °C 30.05in /  1017.5hPa Calm     60% 0.00in /  0mm 0.0 W/m2
22:11 55.0 °F /  12.8 °C 41.9 °F /  5.5 °C 30.05in /  1017.5hPa Calm     61% 0.00in /  0mm 0.0 W/m2
22:17 54.9 °F /  12.7 °C 41.7 °F /  5.4 °C 30.05in /  1017.5hPa Calm     61% 0.00in /  0mm 0.0 W/m2
22:24 54.7 °F /  12.6 °C 41.5 °F /  5.3 °C 30.05in /  1017.5hPa Calm     61% 0.00in /  0mm 0.0 W/m2
22:30 54.3 °F /  12.4 °C 41.5 °F /  5.3 °C 30.06in /  1017.8hPa Calm     62% 0.00in /  0mm 0.0 W/m2
22:36 54.1 °F /  12.3 °C 41.9 °F /  5.5 °C 30.05in /  1017.5hPa Calm     63% 0.00in /  0mm 0.0 W/m2
22:42 54.0 °F /  12.2 °C 41.7 °F /  5.4 °C 30.05in /  1017.5hPa Calm     63% 0.00in /  0mm 0.0 W/m2
22:48 54.0 °F /  12.2 °C 42.1 °F /  5.6 °C 30.05in /  1017.5hPa Calm     64% 0.00in /  0mm 0.0 W/m2
22:54 53.8 °F /  12.1 °C 41.9 °F /  5.5 °C 30.05in /  1017.5hPa Calm     64% 0.00in /  0mm 0.0 W/m2
23:00 53.6 °F /  12 °C 41.7 °F /  5.4 °C 30.05in /  1017.5hPa Calm     64% 0.00in /  0mm 0.0 W/m2
23:06 53.4 °F /  11.9 °C 41.9 °F /  5.5 °C 30.05in /  1017.5hPa Calm     65% 0.00in /  0mm 0.0 W/m2
23:13 53.4 °F /  11.9 °C 41.9 °F /  5.5 °C 30.04in /  1017.2hPa Calm     65% 0.00in /  0mm 0.0 W/m2
23:19 53.2 °F /  11.8 °C 41.7 °F /  5.4 °C 30.05in /  1017.5hPa Calm     65% 0.00in /  0mm 0.0 W/m2
23:25 53.1 °F /  11.7 °C 41.5 °F /  5.3 °C 30.05in /  1017.5hPa Calm   1.0mph /  1.6km/h 65% 0.00in /  0mm 0.0 W/m2
23:31 53.1 °F /  11.7 °C 41.5 °F /  5.3 °C 30.04in /  1017.2hPa Calm   2.0mph /  3.2km/h 65% 0.00in /  0mm 0.0 W/m2
23:37 53.2 °F /  11.8 °C 42.3 °F /  5.7 °C 30.04in /  1017.2hPa Calm     66% 0.00in /  0mm 0.0 W/m2
23:43 53.2 °F /  11.8 °C 42.3 °F /  5.7 °C 30.04in /  1017.2hPa ESE 0.9mph /  1.4km/h 2.0mph /  3.2km/h 66% 0.00in /  0mm 0.0 W/m2
23:49 53.1 °F /  11.7 °C 42.1 °F /  5.6 °C 30.05in /  1017.5hPa East 2.9mph /  4.7km/h 3.0mph /  4.8km/h 66% 0.00in /  0mm 0.0 W/m2
23:55 53.1 °F /  11.7 °C 42.1 °F /  5.6 °C 30.05in /  1017.5hPa East 0.9mph /  1.4km/h 6.0mph /  9.7km/h 66% 0.00in /  0mm 0.0 W/m2
Olympia, Windhoek, Namibia
Compliments of Weather Underground - 3 mb